Time;durP1;ratioP1;P1;durP2;ratioP2;P2;SDS_P1;SDS_P2;PMS_P1;PMS_P2;Temp;Humidity;BMP_temperature;BMP_pressure;BME280_temperature;BME280_humidity;BME280_pressure;Samples;Min_cycle;Max_cycle;Signal;HPM_P1;HPM_P2
2022/09/30 00:00:55;;;;;;;12.87;8.50;;;;;;;;;;5032721;28;20493;-45
2022/09/30 00:03:21;;;;;;;12.97;8.20;;;;;;;;;;5032104;28;20479;-44
2022/09/30 00:05:46;;;;;;;11.53;8.33;;;;;;;;;;5052917;28;20457;-45
2022/09/30 00:08:13;;;;;;;10.13;8.20;;;;;;;;;;5052660;28;20442;-46
2022/09/30 00:10:39;;;;;;;12.90;7.70;;;;;;;;;;5032734;28;20460;-45
2022/09/30 00:13:05;;;;;;;10.37;8.17;;;;;;;;;;5032360;28;20557;-45
2022/09/30 00:15:31;;;;;;;9.60;8.20;;;;;;;;;;5038211;28;20408;-45
2022/09/30 00:17:58;;;;;;;8.73;7.87;;;;;;;;;;5044221;28;20436;-45
2022/09/30 00:20:24;;;;;;;13.73;7.90;;;;;;;;;;5052157;28;20899;-45
2022/09/30 00:22:50;;;;;;;17.37;8.13;;;;;;;;;;5036943;28;20412;-45
2022/09/30 00:25:16;;;;;;;9.57;7.93;;;;;;;;;;5034371;28;20822;-45
2022/09/30 00:27:42;;;;;;;12.03;7.83;;;;;;;;;;5043799;28;20442;-45
2022/09/30 00:30:08;;;;;;;9.23;8.00;;;;;;;;;;5032215;28;20481;-45
2022/09/30 00:32:34;;;;;;;9.40;7.13;;;;;;;;;;5031671;28;20848;-45
2022/09/30 00:35:00;;;;;;;8.23;7.47;;;;;;;;;;5051591;28;20501;-45
2022/09/30 00:37:26;;;;;;;10.73;7.80;;;;;;;;;;5052136;28;20461;-45
2022/09/30 00:39:52;;;;;;;15.00;8.53;;;;;;;;;;5033515;28;20457;-45
2022/09/30 00:42:18;;;;;;;8.07;7.23;;;;;;;;;;5031596;28;20477;-45
2022/09/30 00:44:49;;;;;;;14.53;7.40;;;;;;;;;;5048795;28;20429;-45
2022/09/30 00:47:25;;;;;;;14.17;8.30;;;;;;;;;;5051975;28;20465;-45
2022/09/30 00:49:51;;;;;;;10.40;8.40;;;;;;;;;;5034048;28;20887;-45
2022/09/30 00:52:18;;;;;;;16.00;7.93;;;;;;;;;;5031382;28;20407;-45
2022/09/30 00:54:44;;;;;;;13.07;8.50;;;;;;;;;;5048604;28;20426;-45
2022/09/30 00:57:10;;;;;;;10.67;8.40;;;;;;;;;;5051581;28;20952;-46
2022/09/30 00:59:40;;;;;;;10.73;7.60;;;;;;;;;;5036088;28;20506;-45
2022/09/30 01:02:05;;;;;;;8.73;7.60;;;;;;;;;;5030403;28;20445;-45
2022/09/30 01:04:33;;;;;;;12.03;8.57;;;;;;;;;;5046166;28;20588;-45
2022/09/30 01:07:01;;;;;;;16.97;9.10;;;;;;;;;;5051346;28;20838;-45
2022/09/30 01:09:27;;;;;;;12.10;8.43;;;;;;;;;;5036890;28;20462;-45
2022/09/30 01:11:53;;;;;;;11.30;8.17;;;;;;;;;;5031107;28;20407;-45
2022/09/30 01:14:21;;;;;;;9.83;7.63;;;;;;;;;;5044592;28;20449;-45
2022/09/30 01:16:56;;;;;;;12.80;8.73;;;;;;;;;;5051581;28;20430;-45
2022/09/30 01:19:41;;;;;;;9.07;7.40;;;;;;;;;;5038066;28;20419;-45
2022/09/30 01:22:14;;;;;;;10.37;7.97;;;;;;;;;;5031327;28;20944;-45
2022/09/30 01:24:40;;;;;;;10.53;7.60;;;;;;;;;;5047243;28;20425;-46
2022/09/30 01:27:25;;;;;;;12.50;8.03;;;;;;;;;;5056017;28;20417;-45
2022/09/30 01:30:06;;;;;;;10.00;8.20;;;;;;;;;;5037693;28;20870;-45
2022/09/30 01:32:52;;;;;;;14.33;8.93;;;;;;;;;;5041495;28;20405;-45
2022/09/30 01:35:21;;;;;;;12.13;7.37;;;;;;;;;;5057800;28;20425;-45
2022/09/30 01:37:48;;;;;;;11.77;8.50;;;;;;;;;;5051746;28;20942;-45
2022/09/30 01:40:21;;;;;;;9.57;8.33;;;;;;;;;;5038361;28;20464;-45
2022/09/30 01:42:47;;;;;;;9.60;8.60;;;;;;;;;;5043485;28;20945;-45
2022/09/30 01:45:36;;;;;;;8.73;7.90;;;;;;;;;;5057836;28;20407;-45
2022/09/30 01:48:02;;;;;;;10.53;8.80;;;;;;;;;;5047319;28;20476;-45
2022/09/30 01:50:28;;;;;;;10.07;8.50;;;;;;;;;;5037620;28;20454;-45
2022/09/30 01:53:14;;;;;;;9.80;8.30;;;;;;;;;;5044054;28;20830;-45
2022/09/30 01:55:45;;;;;;;13.60;8.60;;;;;;;;;;5057924;28;20430;-45
2022/09/30 01:58:15;;;;;;;8.50;7.43;;;;;;;;;;5049275;28;20443;-45
2022/09/30 02:00:42;;;;;;;15.77;7.90;;;;;;;;;;5037598;28;20455;-45
2022/09/30 02:03:12;;;;;;;11.43;8.10;;;;;;;;;;5045859;28;20916;-45
2022/09/30 02:05:43;;;;;;;9.47;7.77;;;;;;;;;;5057711;28;20398;-45
2022/09/30 02:08:18;;;;;;;11.43;8.10;;;;;;;;;;5049644;28;20583;-45
2022/09/30 02:10:52;;;;;;;10.10;9.10;;;;;;;;;;5037505;28;20462;-44
2022/09/30 02:13:21;;;;;;;11.83;8.93;;;;;;;;;;5046893;28;21039;-45
2022/09/30 02:15:52;;;;;;;12.77;9.00;;;;;;;;;;5057384;28;20405;-45
2022/09/30 02:18:23;;;;;;;14.40;9.10;;;;;;;;;;5048674;28;20834;-45
2022/09/30 02:20:52;;;;;;;16.87;9.87;;;;;;;;;;5037441;28;20464;-45
2022/09/30 02:23:29;;;;;;;10.17;8.70;;;;;;;;;;5046548;28;20467;-45
2022/09/30 02:26:04;;;;;;;13.43;9.17;;;;;;;;;;5057540;28;20416;-45
2022/09/30 02:28:31;;;;;;;15.90;9.40;;;;;;;;;;5046979;28;20872;-45
2022/09/30 02:30:58;;;;;;;11.63;8.80;;;;;;;;;;5037296;28;20446;-45
2022/09/30 02:33:38;;;;;;;16.47;9.17;;;;;;;;;;5046798;28;20455;-45
2022/09/30 02:36:23;;;;;;;12.10;10.23;;;;;;;;;;5056206;28;20515;-45
2022/09/30 02:38:55;;;;;;;16.93;10.00;;;;;;;;;;5033055;28;20478;-45
2022/09/30 02:41:25;;;;;;;12.53;10.17;;;;;;;;;;5035051;28;20498;-45
2022/09/30 02:43:52;;;;;;;17.60;9.87;;;;;;;;;;5054517;28;20418;-45
2022/09/30 02:46:24;;;;;;;19.03;9.53;;;;;;;;;;5053398;28;20401;-45
2022/09/30 02:49:09;;;;;;;12.73;8.80;;;;;;;;;;5033387;28;20430;-45
2022/09/30 02:51:42;;;;;;;19.10;9.73;;;;;;;;;;5035900;28;20479;-45
2022/09/30 02:54:16;;;;;;;12.90;8.70;;;;;;;;;;5052452;28;20390;-45
2022/09/30 02:56:45;;;;;;;12.57;9.60;;;;;;;;;;5046907;28;20187;-45
2022/09/30 02:59:11;;;;;;;11.80;9.20;;;;;;;;;;5034105;28;20412;-46
2022/09/30 03:01:40;;;;;;;16.00;9.13;;;;;;;;;;5036950;28;21022;-45
2022/09/30 03:04:07;;;;;;;12.30;8.20;;;;;;;;;;5054125;28;20397;-45
2022/09/30 03:06:34;;;;;;;11.73;8.90;;;;;;;;;;5051279;28;20430;-45
2022/09/30 03:09:01;;;;;;;18.03;9.20;;;;;;;;;;5034077;28;20404;-45
2022/09/30 03:11:28;;;;;;;14.10;8.80;;;;;;;;;;5035279;28;20408;-46
2022/09/30 03:14:12;;;;;;;12.70;9.73;;;;;;;;;;5053874;28;20401;-45
2022/09/30 03:16:57;;;;;;;9.73;8.73;;;;;;;;;;5050717;28;20421;-45
2022/09/30 03:19:52;;;;;;;15.07;9.50;;;;;;;;;;5033874;28;20406;-45
2022/09/30 03:22:22;;;;;;;12.20;8.50;;;;;;;;;;5041236;28;20847;-45
2022/09/30 03:24:54;;;;;;;14.03;8.80;;;;;;;;;;5053379;28;20488;-45
2022/09/30 03:27:33;;;;;;;11.17;8.87;;;;;;;;;;5044881;28;20782;-45
2022/09/30 03:29:59;;;;;;;9.83;8.43;;;;;;;;;;5033548;28;20449;-45
2022/09/30 03:32:42;;;;;;;10.83;9.70;;;;;;;;;;5039552;28;20417;-45
2022/09/30 03:35:11;;;;;;;11.90;8.67;;;;;;;;;;5053512;28;20406;-45
2022/09/30 03:37:44;;;;;;;9.40;8.30;;;;;;;;;;5041529;28;20440;-45
2022/09/30 03:40:27;;;;;;;12.50;9.77;;;;;;;;;;5033498;28;20409;-45
2022/09/30 03:42:57;;;;;;;16.67;8.38;;;;;;;;;;5043370;28;20831;-45
2022/09/30 03:45:31;;;;;;;15.40;10.00;;;;;;;;;;5034424;28;20184;-46
2022/09/30 03:48:01;;;;;;;10.80;9.00;;;;;;;;;;5036008;28;20523;-45
2022/09/30 03:50:27;;;;;;;14.83;9.70;;;;;;;;;;5052788;28;20449;-45
2022/09/30 03:52:54;;;;;;;11.93;9.57;;;;;;;;;;5050105;28;20508;-45
2022/09/30 03:55:21;;;;;;;13.47;9.70;;;;;;;;;;5053180;28;20412;-45
2022/09/30 03:57:48;;;;;;;16.50;9.47;;;;;;;;;;5041538;28;20470;-45
2022/09/30 04:00:14;;;;;;;12.37;9.67;;;;;;;;;;5033100;28;20506;-45
2022/09/30 04:02:40;;;;;;;12.20;9.43;;;;;;;;;;5042777;28;20483;-45
2022/09/30 04:05:07;;;;;;;15.43;10.90;;;;;;;;;;5052873;28;20413;-45
2022/09/30 04:07:34;;;;;;;12.03;10.50;;;;;;;;;;5043675;28;20950;-45
2022/09/30 04:10:00;;;;;;;13.60;12.17;;;;;;;;;;5044964;28;20869;-45
2022/09/30 04:12:26;;;;;;;14.03;10.70;;;;;;;;;;5050910;28;20406;-45
2022/09/30 04:14:52;;;;;;;15.63;11.37;;;;;;;;;;5052598;28;20398;-45
2022/09/30 04:17:18;;;;;;;17.07;11.20;;;;;;;;;;5045397;28;20441;-45
2022/09/30 04:19:44;;;;;;;16.70;11.67;;;;;;;;;;5032444;28;20415;-45
2022/09/30 04:22:10;;;;;;;19.92;11.75;;;;;;;;;;5037804;28;20417;-45
2022/09/30 04:24:36;;;;;;;14.40;11.93;;;;;;;;;;5052579;28;20593;-45
2022/09/30 04:27:02;;;;;;;18.08;13.07;;;;;;;;;;5047454;28;20818;-45
2022/09/30 04:29:28;;;;;;;22.50;13.60;;;;;;;;;;5032132;28;20204;-45
2022/09/30 04:31:54;;;;;;;15.60;12.70;;;;;;;;;;5050445;28;20420;-45
2022/09/30 04:34:20;;;;;;;17.37;13.80;;;;;;;;;;5036967;28;20416;-45
2022/09/30 04:36:46;;;;;;;22.30;13.57;;;;;;;;;;5032333;28;20441;-44
2022/09/30 04:39:12;;;;;;;15.77;11.87;;;;;;;;;;5033215;28;20410;-44
2022/09/30 04:41:39;;;;;;;20.10;13.70;;;;;;;;;;5038618;28;20424;-45
2022/09/30 04:44:05;;;;;;;20.03;12.90;;;;;;;;;;5039495;28;20414;-45
2022/09/30 04:46:33;;;;;;;18.23;12.73;;;;;;;;;;5037160;28;20740;-45
2022/09/30 04:48:59;;;;;;;14.43;11.80;;;;;;;;;;5051521;28;20179;-44
2022/09/30 04:51:26;;;;;;;15.10;12.20;;;;;;;;;;5045865;28;20556;-45
2022/09/30 04:53:52;;;;;;;23.53;14.10;;;;;;;;;;5042716;28;20414;-44
2022/09/30 04:56:18;;;;;;;19.60;12.60;;;;;;;;;;5051182;28;20416;-45
2022/09/30 04:58:44;;;;;;;18.37;13.73;;;;;;;;;;5049485;28;20534;-45
2022/09/30 05:01:11;;;;;;;20.90;15.03;;;;;;;;;;5044849;28;20829;-45
2022/09/30 05:03:38;;;;;;;22.47;13.80;;;;;;;;;;5036081;28;20496;-45
2022/09/30 05:06:04;;;;;;;24.33;13.10;;;;;;;;;;5031842;28;20437;-45
2022/09/30 05:08:32;;;;;;;21.90;14.90;;;;;;;;;;5051070;28;20846;-45
2022/09/30 05:11:10;;;;;;;19.67;14.50;;;;;;;;;;5051574;28;20453;-45
2022/09/30 05:13:38;;;;;;;19.17;15.40;;;;;;;;;;5031404;28;20422;-45
2022/09/30 05:16:05;;;;;;;22.77;14.70;;;;;;;;;;5043829;28;20417;-45
2022/09/30 05:18:32;;;;;;;20.90;14.65;;;;;;;;;;5031393;28;20451;-45
2022/09/30 05:20:59;;;;;;;20.23;14.63;;;;;;;;;;5034751;28;20706;-45
2022/09/30 05:23:25;;;;;;;20.48;14.32;;;;;;;;;;5031042;28;20429;-44
2022/09/30 05:25:51;;;;;;;20.93;13.43;;;;;;;;;;5035457;28;20175;-45
2022/09/30 05:28:17;;;;;;;21.13;13.57;;;;;;;;;;5030679;28;20911;-45
2022/09/30 05:30:44;;;;;;;23.00;14.03;;;;;;;;;;5039975;28;20206;-45
2022/09/30 05:33:11;;;;;;;16.88;13.65;;;;;;;;;;5038634;28;20766;-44
2022/09/30 05:35:40;;;;;;;18.55;12.80;;;;;;;;;;5048275;28;20189;-45
2022/09/30 05:38:06;;;;;;;17.87;12.97;;;;;;;;;;5051172;28;20203;-45
2022/09/30 05:40:32;;;;;;;16.80;12.20;;;;;;;;;;5046358;28;20423;-45
2022/09/30 05:42:58;;;;;;;15.70;11.80;;;;;;;;;;5039166;28;20525;-45
2022/09/30 05:45:24;;;;;;;18.98;12.23;;;;;;;;;;5052085;28;20898;-45
2022/09/30 05:47:52;;;;;;;15.38;11.27;;;;;;;;;;5036972;28;20567;-45
2022/09/30 05:50:18;;;;;;;15.60;11.63;;;;;;;;;;5031211;28;20686;-45
2022/09/30 05:52:44;;;;;;;15.50;11.77;;;;;;;;;;5043396;28;20676;-44
2022/09/30 05:55:10;;;;;;;17.77;12.37;;;;;;;;;;5030854;28;20435;-44
2022/09/30 05:57:36;;;;;;;24.33;14.17;;;;;;;;;;5049448;28;20487;-44
2022/09/30 06:00:03;;;;;;;17.83;12.90;;;;;;;;;;5040219;28;20552;-44
2022/09/30 06:02:29;;;;;;;20.05;12.38;;;;;;;;;;5033645;28;20835;-46
2022/09/30 06:04:55;;;;;;;21.90;12.40;;;;;;;;;;5030346;28;20181;-45
2022/09/30 06:07:21;;;;;;;21.20;12.27;;;;;;;;;;5041292;28;20431;-45
2022/09/30 06:09:47;;;;;;;14.57;10.33;;;;;;;;;;5049747;28;20503;-44
2022/09/30 06:12:13;;;;;;;15.70;11.90;;;;;;;;;;5049270;28;20432;-44
2022/09/30 06:14:39;;;;;;;16.33;11.57;;;;;;;;;;5047552;28;20643;-45
2022/09/30 06:17:05;;;;;;;15.00;11.13;;;;;;;;;;5050975;28;20967;-45
2022/09/30 06:19:31;;;;;;;16.67;12.83;;;;;;;;;;5051956;28;20418;-45
2022/09/30 06:21:58;;;;;;;18.97;11.93;;;;;;;;;;5049839;28;20772;-45
2022/09/30 06:24:24;;;;;;;15.07;11.60;;;;;;;;;;5040183;28;20413;-45
2022/09/30 06:26:50;;;;;;;23.30;13.00;;;;;;;;;;5036187;28;20963;-44
2022/09/30 06:29:16;;;;;;;22.37;11.80;;;;;;;;;;5047275;28;20419;-44
2022/09/30 06:31:42;;;;;;;23.73;11.90;;;;;;;;;;5053423;28;20418;-44
2022/09/30 06:34:09;;;;;;;19.17;12.13;;;;;;;;;;5039413;28;20407;-44
2022/09/30 06:36:38;;;;;;;21.57;12.70;;;;;;;;;;5043377;28;20407;-44
2022/09/30 06:39:05;;;;;;;17.00;12.77;;;;;;;;;;5040069;28;20410;-45
2022/09/30 06:41:31;;;;;;;16.07;11.93;;;;;;;;;;5053256;28;20407;-44
2022/09/30 06:43:57;;;;;;;18.40;12.97;;;;;;;;;;5042425;28;20478;-45
2022/09/30 06:46:24;;;;;;;22.47;13.10;;;;;;;;;;5052697;28;20472;-45
2022/09/30 06:48:54;;;;;;;25.67;11.70;;;;;;;;;;5043776;28;20447;-45
2022/09/30 06:51:20;;;;;;;18.47;11.17;;;;;;;;;;5033810;28;20454;-44
2022/09/30 06:53:49;;;;;;;21.33;11.77;;;;;;;;;;5039267;28;20467;-44
2022/09/30 06:56:17;;;;;;;16.13;10.87;;;;;;;;;;5045402;28;20449;-44
2022/09/30 06:58:44;;;;;;;19.33;11.90;;;;;;;;;;5034110;28;20439;-45
2022/09/30 07:01:13;;;;;;;19.27;12.27;;;;;;;;;;5044846;28;20424;-45
2022/09/30 07:03:39;;;;;;;22.63;10.87;;;;;;;;;;5042372;28;20450;-44
2022/09/30 07:06:05;;;;;;;16.17;10.20;;;;;;;;;;5053657;28;20421;-45
2022/09/30 07:08:32;;;;;;;21.67;10.30;;;;;;;;;;5047601;28;20441;-44
2022/09/30 07:10:59;;;;;;;13.87;10.47;;;;;;;;;;5044402;28;20587;-46
2022/09/30 07:13:27;;;;;;;14.57;11.00;;;;;;;;;;5052306;28;20409;-45
2022/09/30 07:15:55;;;;;;;14.60;11.60;;;;;;;;;;5033799;28;20440;-45
2022/09/30 07:18:26;;;;;;;12.77;10.57;;;;;;;;;;5045821;28;20480;-45
2022/09/30 07:20:53;;;;;;;15.40;10.90;;;;;;;;;;5033396;28;20410;-45
2022/09/30 07:23:20;;;;;;;11.20;9.60;;;;;;;;;;5042572;28;20969;-45
2022/09/30 07:25:50;;;;;;;17.03;8.10;;;;;;;;;;5053676;28;20408;-44
2022/09/30 07:28:16;;;;;;;12.70;8.47;;;;;;;;;;5053887;28;20425;-45
2022/09/30 07:30:42;;;;;;;13.00;8.77;;;;;;;;;;5038530;28;20468;-45
2022/09/30 07:33:09;;;;;;;11.37;8.70;;;;;;;;;;5049682;28;20426;-45
2022/09/30 07:35:36;;;;;;;12.70;7.90;;;;;;;;;;5035165;28;20417;-45
2022/09/30 07:38:03;;;;;;;14.17;9.20;;;;;;;;;;5034373;28;20935;-44
2022/09/30 07:40:30;;;;;;;12.60;9.40;;;;;;;;;;5033060;28;20467;-45
2022/09/30 07:42:56;;;;;;;12.20;8.53;;;;;;;;;;5044422;28;20447;-44
2022/09/30 07:45:23;;;;;;;9.80;8.90;;;;;;;;;;5037131;28;20730;-44
2022/09/30 07:47:49;;;;;;;15.00;9.10;;;;;;;;;;5044950;28;20442;-45
2022/09/30 07:50:15;;;;;;;10.87;8.60;;;;;;;;;;5041900;28;20453;-45
2022/09/30 07:52:41;;;;;;;13.20;9.43;;;;;;;;;;5041278;28;20468;-45
2022/09/30 07:55:07;;;;;;;11.77;10.57;;;;;;;;;;5042572;28;20834;-45
2022/09/30 07:57:33;;;;;;;13.60;9.50;;;;;;;;;;5043299;28;20492;-44
2022/09/30 07:59:59;;;;;;;11.40;7.57;;;;;;;;;;5041804;28;20510;-45
2022/09/30 08:02:26;;;;;;;10.37;8.73;;;;;;;;;;5042759;28;20443;-44
2022/09/30 08:04:52;;;;;;;10.43;8.90;;;;;;;;;;5041700;28;20421;-44
2022/09/30 08:07:18;;;;;;;13.80;8.53;;;;;;;;;;5036092;28;20435;-46
2022/09/30 08:09:46;;;;;;;14.07;9.27;;;;;;;;;;5042447;28;20463;-45
2022/09/30 08:12:12;;;;;;;9.60;8.57;;;;;;;;;;5038062;28;20483;-44
2022/09/30 08:14:38;;;;;;;12.80;9.77;;;;;;;;;;5039703;28;20452;-44
2022/09/30 08:17:05;;;;;;;13.00;8.97;;;;;;;;;;5043878;28;20441;-44
2022/09/30 08:19:32;;;;;;;11.60;8.83;;;;;;;;;;5038798;28;20406;-44
2022/09/30 08:21:58;;;;;;;11.10;9.23;;;;;;;;;;5041207;28;20427;-44
2022/09/30 08:24:26;;;;;;;16.03;9.53;;;;;;;;;;5045837;28;20447;-44
2022/09/30 08:26:52;;;;;;;11.77;8.97;;;;;;;;;;5039818;28;20462;-45
2022/09/30 08:29:18;;;;;;;13.87;9.90;;;;;;;;;;5040471;28;20424;-44
2022/09/30 08:31:44;;;;;;;12.43;9.10;;;;;;;;;;5040736;28;20416;-45
2022/09/30 08:34:10;;;;;;;11.40;9.97;;;;;;;;;;5042147;28;20433;-45
2022/09/30 08:36:36;;;;;;;11.20;9.13;;;;;;;;;;5042690;28;20415;-45
2022/09/30 08:39:02;;;;;;;19.43;9.43;;;;;;;;;;5038669;28;20503;-44
2022/09/30 08:41:28;;;;;;;12.17;9.90;;;;;;;;;;5055271;28;20783;-44
2022/09/30 08:43:57;;;;;;;10.50;8.30;;;;;;;;;;5042534;28;20434;-44
2022/09/30 08:46:29;;;;;;;12.97;9.30;;;;;;;;;;5042278;28;20422;-45
2022/09/30 08:48:55;;;;;;;9.67;8.70;;;;;;;;;;5041924;28;20510;-44
2022/09/30 08:51:28;;;;;;;12.63;8.90;;;;;;;;;;5041679;28;20814;-46
2022/09/30 08:53:55;;;;;;;11.03;8.63;;;;;;;;;;5045336;28;20943;-44
2022/09/30 08:56:27;;;;;;;11.17;8.63;;;;;;;;;;5043755;28;20442;-45
2022/09/30 08:58:59;;;;;;;13.70;7.47;;;;;;;;;;5050464;28;20433;-45
2022/09/30 09:01:46;;;;;;;11.13;8.30;;;;;;;;;;5049407;28;20438;-44
2022/09/30 09:04:13;;;;;;;10.90;7.87;;;;;;;;;;5045235;28;20389;-44
2022/09/30 09:06:46;;;;;;;8.80;7.27;;;;;;;;;;5033070;28;20433;-46
2022/09/30 09:09:12;;;;;;;10.50;7.10;;;;;;;;;;5041386;28;20413;-45
2022/09/30 09:11:44;;;;;;;8.90;7.20;;;;;;;;;;5050389;28;21012;-44
2022/09/30 09:14:19;;;;;;;8.77;6.97;;;;;;;;;;5034574;28;20411;-45
2022/09/30 09:16:49;;;;;;;8.30;7.17;;;;;;;;;;5041951;28;20554;-45
2022/09/30 09:19:17;;;;;;;9.80;6.47;;;;;;;;;;5049973;28;20879;-45
2022/09/30 09:21:55;;;;;;;9.77;7.90;;;;;;;;;;5049543;28;20444;-45
2022/09/30 09:24:23;;;;;;;7.00;6.33;;;;;;;;;;5037141;28;20416;-45
2022/09/30 09:26:50;;;;;;;11.93;6.50;;;;;;;;;;5038093;28;20511;-45
2022/09/30 09:29:26;;;;;;;8.73;6.63;;;;;;;;;;5032645;28;20474;-47
2022/09/30 09:31:53;;;;;;;6.00;4.93;;;;;;;;;;5030860;28;20441;-45
2022/09/30 09:34:19;;;;;;;10.00;7.00;;;;;;;;;;5045113;28;20446;-47
2022/09/30 09:36:52;;;;;;;6.07;5.00;;;;;;;;;;5037104;28;20467;-45
2022/09/30 09:39:26;;;;;;;5.43;4.90;;;;;;;;;;5032730;28;20417;-45
2022/09/30 09:42:11;;;;;;;5.80;5.30;;;;;;;;;;5040531;28;20438;-45
2022/09/30 09:44:48;;;;;;;11.10;5.30;;;;;;;;;;5042194;28;20905;-45
2022/09/30 09:47:14;;;;;;;5.33;4.40;;;;;;;;;;5038519;28;20442;-45
2022/09/30 09:49:52;;;;;;;5.20;4.70;;;;;;;;;;5052809;28;21375;-47
2022/09/30 09:52:22;;;;;;;6.33;4.73;;;;;;;;;;5051349;28;20409;-45
2022/09/30 09:54:51;;;;;;;8.73;4.90;;;;;;;;;;5050681;28;20388;-47
2022/09/30 09:57:23;;;;;;;6.20;4.27;;;;;;;;;;5050075;28;20460;-46
2022/09/30 09:59:57;;;;;;;7.50;4.23;;;;;;;;;;5052388;28;20432;-45
2022/09/30 10:02:28;;;;;;;4.93;3.87;;;;;;;;;;5052717;28;20459;-47
2022/09/30 10:05:02;;;;;;;6.77;3.43;;;;;;;;;;5053400;28;20413;-45
2022/09/30 10:07:29;;;;;;;5.37;3.73;;;;;;;;;;5052251;28;20866;-45
2022/09/30 10:10:14;;;;;;;4.90;3.90;;;;;;;;;;5052531;28;20507;-45
2022/09/30 10:12:42;;;;;;;11.07;3.57;;;;;;;;;;5050725;28;20470;-46
2022/09/30 10:15:18;;;;;;;4.50;4.10;;;;;;;;;;5051606;28;21131;-45
2022/09/30 10:17:49;;;;;;;6.77;4.60;;;;;;;;;;5051478;28;20437;-45
2022/09/30 10:20:15;;;;;;;5.13;4.00;;;;;;;;;;5047867;28;20436;-45
2022/09/30 10:22:41;;;;;;;7.80;4.67;;;;;;;;;;5052862;28;20398;-45
2022/09/30 10:25:13;;;;;;;9.30;5.27;;;;;;;;;;5050957;28;20866;-47
2022/09/30 10:27:59;;;;;;;4.80;3.77;;;;;;;;;;5052890;28;20444;-45
2022/09/30 10:30:45;;;;;;;7.33;4.80;;;;;;;;;;5050341;28;20540;-45
2022/09/30 10:33:35;;;;;;;4.50;4.10;;;;;;;;;;5052498;28;20413;-45
2022/09/30 10:36:04;;;;;;;4.50;3.63;;;;;;;;;;5047962;28;20520;-46
2022/09/30 10:38:33;;;;;;;4.53;3.63;;;;;;;;;;5052484;28;20433;-45
2022/09/30 10:41:00;;;;;;;4.73;4.20;;;;;;;;;;5052677;28;20574;-45
2022/09/30 10:43:26;;;;;;;6.13;4.53;;;;;;;;;;5052025;28;20421;-45
2022/09/30 10:45:52;;;;;;;6.87;4.10;;;;;;;;;;5050533;28;20417;-45
2022/09/30 10:48:20;;;;;;;6.10;4.40;;;;;;;;;;5050705;28;20460;-45
2022/09/30 10:50:50;;;;;;;4.30;3.50;;;;;;;;;;5052532;28;20462;-45
2022/09/30 10:53:21;;;;;;;7.90;3.80;;;;;;;;;;5050609;28;20416;-45
2022/09/30 10:55:46;;;;;;;6.43;3.60;;;;;;;;;;5051732;28;20470;-45
2022/09/30 10:58:25;;;;;;;8.20;3.30;;;;;;;;;;5050060;28;20429;-45
2022/09/30 11:01:14;;;;;;;6.30;3.43;;;;;;;;;;5051192;28;20937;-46
2022/09/30 11:03:52;;;;;;;7.30;3.97;;;;;;;;;;5044469;28;20472;-45
2022/09/30 11:06:19;;;;;;;6.20;3.60;;;;;;;;;;5052223;28;20419;-45
2022/09/30 11:09:01;;;;;;;4.43;4.00;;;;;;;;;;5050886;28;21180;-45
2022/09/30 11:11:29;;;;;;;7.93;3.23;;;;;;;;;;5048968;28;21225;-47
2022/09/30 11:13:56;;;;;;;10.57;3.87;;;;;;;;;;5049234;28;20421;-44
2022/09/30 11:16:30;;;;;;;4.00;3.60;;;;;;;;;;5049431;28;20979;-44
2022/09/30 11:18:59;;;;;;;5.00;3.30;;;;;;;;;;5050926;28;20459;-44
2022/09/30 11:21:28;;;;;;;4.30;3.63;;;;;;;;;;5050092;28;20410;-45
2022/09/30 11:24:24;;;;;;;4.10;3.37;;;;;;;;;;5040338;28;20430;-45
2022/09/30 11:26:50;;;;;;;3.37;3.07;;;;;;;;;;5045759;28;20475;-44
2022/09/30 11:29:37;;;;;;;7.33;3.67;;;;;;;;;;5044424;28;20448;-44
2022/09/30 11:32:09;;;;;;;4.87;4.00;;;;;;;;;;5037465;28;20430;-45
2022/09/30 11:34:35;;;;;;;4.93;3.33;;;;;;;;;;5048707;28;20576;-45
2022/09/30 11:37:15;;;;;;;5.67;4.07;;;;;;;;;;5033367;28;20995;-46
2022/09/30 11:40:06;;;;;;;4.80;3.30;;;;;;;;;;5039744;28;20429;-45
2022/09/30 11:42:41;;;;;;;6.80;3.00;;;;;;;;;;5049779;28;20514;-45
2022/09/30 11:45:42;;;;;;;10.23;3.20;;;;;;;;;;5047551;28;20415;-45
2022/09/30 11:48:08;;;;;;;8.53;3.03;;;;;;;;;;5034123;28;20796;-45
2022/09/30 11:50:52;;;;;;;3.40;3.07;;;;;;;;;;5052741;28;20549;-46
2022/09/30 11:53:40;;;;;;;5.30;2.80;;;;;;;;;;5050972;28;20413;-46
2022/09/30 11:56:28;;;;;;;3.40;2.87;;;;;;;;;;5037383;28;20420;-45
2022/09/30 11:58:57;;;;;;;13.30;3.60;;;;;;;;;;5046501;28;20429;-45
2022/09/30 12:01:32;;;;;;;5.10;3.43;;;;;;;;;;5051682;28;20421;-46
2022/09/30 12:04:17;;;;;;;3.83;3.40;;;;;;;;;;5038996;28;20512;-45
2022/09/30 12:06:46;;;;;;;3.07;2.87;;;;;;;;;;5033023;28;20518;-45
2022/09/30 12:09:23;;;;;;;4.07;2.37;;;;;;;;;;5033893;28;20451;-46
2022/09/30 12:11:51;;;;;;;3.40;3.10;;;;;;;;;;5044695;28;20418;-45
2022/09/30 12:14:35;;;;;;;3.97;2.83;;;;;;;;;;5049703;28;20409;-45
2022/09/30 12:17:04;;;;;;;3.40;2.40;;;;;;;;;;5032523;28;20445;-45
2022/09/30 12:19:39;;;;;;;5.20;2.60;;;;;;;;;;5047630;28;20467;-45
2022/09/30 12:22:05;;;;;;;3.00;2.57;;;;;;;;;;5044093;28;20916;-45
2022/09/30 12:24:31;;;;;;;3.63;3.00;;;;;;;;;;5035974;28;20405;-45
2022/09/30 12:27:00;;;;;;;4.43;3.07;;;;;;;;;;5051882;28;20428;-45
2022/09/30 12:32:11;;;;;;;3.30;2.30;;;;;;;;;;5033045;28;20561;-45
2022/09/30 12:34:47;;;;;;;2.40;2.10;;;;;;;;;;5032366;28;20497;-45
2022/09/30 12:37:16;;;;;;;2.40;2.17;;;;;;;;;;5032458;28;20191;-45
2022/09/30 12:39:48;;;;;;;5.67;3.43;;;;;;;;;;5046575;28;20417;-46
2022/09/30 12:42:21;;;;;;;2.57;2.20;;;;;;;;;;5049981;28;20412;-46
2022/09/30 12:45:06;;;;;;;2.17;2.00;;;;;;;;;;5051363;28;20429;-45
2022/09/30 12:47:44;;;;;;;5.23;2.60;;;;;;;;;;5034690;28;20523;-46
2022/09/30 12:50:12;;;;;;;2.70;2.33;;;;;;;;;;5048964;28;20805;-46
2022/09/30 12:52:38;;;;;;;7.30;2.43;;;;;;;;;;5031521;28;20426;-45
2022/09/30 12:55:12;;;;;;;2.30;1.80;;;;;;;;;;5033333;28;20418;-45
2022/09/30 12:57:42;;;;;;;2.30;2.07;;;;;;;;;;5043860;28;20432;-45
2022/09/30 13:00:16;;;;;;;2.73;1.93;;;;;;;;;;5048619;28;20925;-45
2022/09/30 13:02:53;;;;;;;6.03;2.20;;;;;;;;;;5031162;28;20426;-45
2022/09/30 13:05:32;;;;;;;5.27;2.33;;;;;;;;;;5036250;28;20443;-45
2022/09/30 13:08:03;;;;;;;2.13;2.03;;;;;;;;;;5040021;28;20438;-47
2022/09/30 13:10:38;;;;;;;3.03;2.30;;;;;;;;;;5033294;28;20540;-45
2022/09/30 13:13:24;;;;;;;2.50;2.30;;;;;;;;;;5049248;28;20868;-45
2022/09/30 13:16:02;;;;;;;1.97;1.87;;;;;;;;;;5036325;28;20476;-46
2022/09/30 13:18:28;;;;;;;2.60;2.27;;;;;;;;;;5030498;28;20953;-46
2022/09/30 13:20:55;;;;;;;2.87;2.20;;;;;;;;;;5046078;28;20932;-46
2022/09/30 13:23:36;;;;;;;2.03;1.83;;;;;;;;;;5049995;28;20405;-46
2022/09/30 13:26:04;;;;;;;4.70;2.60;;;;;;;;;;5034964;28;20429;-47
2022/09/30 13:28:37;;;;;;;2.10;1.97;;;;;;;;;;5031650;28;20426;-47
2022/09/30 13:31:35;;;;;;;4.23;2.30;;;;;;;;;;5046830;28;20464;-46
2022/09/30 13:34:01;;;;;;;2.43;1.90;;;;;;;;;;5038960;28;20510;-46
2022/09/30 13:36:39;;;;;;;4.90;2.27;;;;;;;;;;5038628;28;20449;-48
2022/09/30 13:39:25;;;;;;;2.33;2.00;;;;;;;;;;5049195;28;20475;-47
2022/09/30 13:42:03;;;;;;;2.07;1.87;;;;;;;;;;5046063;28;20528;-47
2022/09/30 13:44:32;;;;;;;2.40;2.20;;;;;;;;;;5031221;28;20441;-46
2022/09/30 13:47:01;;;;;;;4.20;2.40;;;;;;;;;;5032230;28;20442;-46
2022/09/30 13:49:38;;;;;;;3.80;3.03;;;;;;;;;;5049601;28;20535;-46
2022/09/30 13:52:06;;;;;;;3.30;3.00;;;;;;;;;;5042432;28;20450;-46
2022/09/30 13:54:36;;;;;;;2.90;2.60;;;;;;;;;;5031221;28;20398;-46
2022/09/30 13:57:04;;;;;;;4.40;3.23;;;;;;;;;;5038591;28;20448;-46
2022/09/30 13:59:38;;;;;;;2.90;2.67;;;;;;;;;;5051157;28;20393;-46
2022/09/30 14:02:24;;;;;;;5.70;3.20;;;;;;;;;;5048663;28;20531;-46
2022/09/30 14:04:50;;;;;;;6.60;2.90;;;;;;;;;;5051267;28;20774;-46
2022/09/30 14:07:19;;;;;;;5.97;3.10;;;;;;;;;;5041611;28;20437;-46
2022/09/30 14:10:02;;;;;;;2.60;2.40;;;;;;;;;;5030995;28;20964;-46
2022/09/30 14:12:47;;;;;;;5.33;2.83;;;;;;;;;;5040748;28;20424;-46
2022/09/30 14:15:31;;;;;;;7.83;3.20;;;;;;;;;;5050875;28;20753;-46
2022/09/30 14:18:08;;;;;;;7.73;3.30;;;;;;;;;;5031169;28;20632;-47
2022/09/30 14:20:38;;;;;;;3.30;2.80;;;;;;;;;;5047305;28;20436;-46
2022/09/30 14:23:11;;;;;;;4.53;2.80;;;;;;;;;;5035747;28;20418;-46
2022/09/30 14:25:39;;;;;;;4.70;3.70;;;;;;;;;;5034582;28;20493;-45
2022/09/30 14:28:15;;;;;;;5.37;2.93;;;;;;;;;;5044669;28;20441;-46
2022/09/30 14:31:28;;;;;;;4.23;2.73;;;;;;;;;;5043975;28;20488;-47
2022/09/30 14:33:30;;;;;;;5.00;2.60;;;;;;;;;;5028503;28;20925;-46
2022/09/30 14:35:59;;;;;;;3.00;2.77;;;;;;;;;;5046173;28;20750;-47
2022/09/30 14:38:28;;;;;;;4.27;2.20;;;;;;;;;;5038673;28;20440;-46
2022/09/30 14:40:56;;;;;;;2.70;1.80;;;;;;;;;;5054015;28;20771;-46
2022/09/30 14:43:34;;;;;;;4.93;2.23;;;;;;;;;;5041591;28;20847;-46
2022/09/30 14:46:04;;;;;;;7.30;2.80;;;;;;;;;;5038240;28;20980;-47
2022/09/30 14:48:36;;;;;;;3.10;2.40;;;;;;;;;;5054175;28;20459;-46
2022/09/30 14:51:07;;;;;;;8.43;2.40;;;;;;;;;;5037928;28;20453;-47
2022/09/30 14:53:34;;;;;;;2.83;2.50;;;;;;;;;;5041983;28;20456;-46
2022/09/30 14:56:01;;;;;;;3.40;2.30;;;;;;;;;;5054192;28;20397;-46